sensor_id;sensor_type;location;lat;lon;timestamp;P1;durP1;ratioP1;P2;durP2;ratioP2
55146;SDS011;41039;49.830;23.988;2022-09-06T00:02:17;4.75;;;2.72;;
55146;SDS011;41039;49.830;23.988;2022-09-06T00:04:43;5.70;;;2.97;;
55146;SDS011;41039;49.830;23.988;2022-09-06T00:07:08;7.95;;;2.70;;
55146;SDS011;41039;49.830;23.988;2022-09-06T00:09:33;5.18;;;2.55;;
55146;SDS011;41039;49.830;23.988;2022-09-06T00:11:59;5.22;;;2.80;;
55146;SDS011;41039;49.830;23.988;2022-09-06T00:14:24;6.82;;;2.78;;
55146;SDS011;41039;49.830;23.988;2022-09-06T00:16:49;5.63;;;2.88;;
55146;SDS011;41039;49.830;23.988;2022-09-06T00:19:14;3.92;;;2.28;;
55146;SDS011;41039;49.830;23.988;2022-09-06T00:21:40;6.07;;;3.08;;
55146;SDS011;41039;49.830;23.988;2022-09-06T00:24:05;5.28;;;2.63;;
55146;SDS011;41039;49.830;23.988;2022-09-06T00:26:30;4.18;;;2.53;;
55146;SDS011;41039;49.830;23.988;2022-09-06T00:28:56;5.55;;;2.90;;
55146;SDS011;41039;49.830;23.988;2022-09-06T00:31:23;7.53;;;2.85;;
55146;SDS011;41039;49.830;23.988;2022-09-06T00:33:48;6.05;;;2.63;;
55146;SDS011;41039;49.830;23.988;2022-09-06T00:36:14;5.05;;;2.55;;
55146;SDS011;41039;49.830;23.988;2022-09-06T00:38:39;5.57;;;2.92;;
55146;SDS011;41039;49.830;23.988;2022-09-06T00:41:05;4.88;;;2.55;;
55146;SDS011;41039;49.830;23.988;2022-09-06T00:43:31;5.53;;;2.67;;
55146;SDS011;41039;49.830;23.988;2022-09-06T00:45:57;6.07;;;2.65;;
55146;SDS011;41039;49.830;23.988;2022-09-06T00:48:22;7.20;;;3.47;;
55146;SDS011;41039;49.830;23.988;2022-09-06T00:50:49;6.05;;;2.75;;
55146;SDS011;41039;49.830;23.988;2022-09-06T00:53:15;4.20;;;2.38;;
55146;SDS011;41039;49.830;23.988;2022-09-06T00:55:40;6.88;;;3.15;;
55146;SDS011;41039;49.830;23.988;2022-09-06T00:58:07;5.70;;;2.53;;
55146;SDS011;41039;49.830;23.988;2022-09-06T01:00:32;7.97;;;2.85;;
55146;SDS011;41039;49.830;23.988;2022-09-06T01:02:58;6.70;;;2.80;;
55146;SDS011;41039;49.830;23.988;2022-09-06T01:05:25;6.05;;;2.85;;
55146;SDS011;41039;49.830;23.988;2022-09-06T01:08:06;6.35;;;2.80;;
55146;SDS011;41039;49.830;23.988;2022-09-06T01:21:21;6.45;;;3.40;;
55146;SDS011;41039;49.830;23.988;2022-09-06T01:29:25;8.35;;;4.80;;
55146;SDS011;41039;49.830;23.988;2022-09-06T01:31:56;8.60;;;3.42;;
55146;SDS011;41039;49.830;23.988;2022-09-06T01:34:27;9.50;;;4.03;;
55146;SDS011;41039;49.830;23.988;2022-09-06T01:36:55;6.18;;;3.92;;
55146;SDS011;41039;49.830;23.988;2022-09-06T01:39:28;7.35;;;3.75;;
55146;SDS011;41039;49.830;23.988;2022-09-06T01:41:55;7.37;;;4.13;;
55146;SDS011;41039;49.830;23.988;2022-09-06T01:44:21;7.57;;;4.00;;
55146;SDS011;41039;49.830;23.988;2022-09-06T01:46:52;7.88;;;3.20;;
55146;SDS011;41039;49.830;23.988;2022-09-06T01:54:27;7.25;;;3.85;;
55146;SDS011;41039;49.830;23.988;2022-09-06T02:04:43;7.90;;;4.57;;
55146;SDS011;41039;49.830;23.988;2022-09-06T02:07:14;8.73;;;4.82;;
55146;SDS011;41039;49.830;23.988;2022-09-06T02:09:40;10.45;;;4.70;;
55146;SDS011;41039;49.830;23.988;2022-09-06T02:12:07;8.32;;;4.13;;
55146;SDS011;41039;49.830;23.988;2022-09-06T02:14:40;7.60;;;4.00;;
55146;SDS011;41039;49.830;23.988;2022-09-06T02:17:07;8.73;;;4.18;;
55146;SDS011;41039;49.830;23.988;2022-09-06T02:19:37;8.75;;;4.82;;
55146;SDS011;41039;49.830;23.988;2022-09-06T02:22:05;9.25;;;5.05;;
55146;SDS011;41039;49.830;23.988;2022-09-06T02:24:31;9.10;;;4.72;;
55146;SDS011;41039;49.830;23.988;2022-09-06T02:27:01;9.23;;;4.43;;
55146;SDS011;41039;49.830;23.988;2022-09-06T02:29:26;10.52;;;5.25;;
55146;SDS011;41039;49.830;23.988;2022-09-06T02:31:52;7.10;;;4.07;;
55146;SDS011;41039;49.830;23.988;2022-09-06T02:34:20;9.65;;;4.03;;
55146;SDS011;41039;49.830;23.988;2022-09-06T02:36:45;11.27;;;4.68;;
55146;SDS011;41039;49.830;23.988;2022-09-06T02:39:11;10.57;;;4.57;;
55146;SDS011;41039;49.830;23.988;2022-09-06T02:41:36;12.45;;;5.22;;
55146;SDS011;41039;49.830;23.988;2022-09-06T02:44:03;9.73;;;4.88;;
55146;SDS011;41039;49.830;23.988;2022-09-06T02:46:29;8.95;;;4.57;;
55146;SDS011;41039;49.830;23.988;2022-09-06T02:48:54;8.85;;;4.97;;
55146;SDS011;41039;49.830;23.988;2022-09-06T02:51:19;7.82;;;4.18;;
55146;SDS011;41039;49.830;23.988;2022-09-06T02:53:45;7.70;;;4.35;;
55146;SDS011;41039;49.830;23.988;2022-09-06T02:56:10;7.10;;;3.90;;
55146;SDS011;41039;49.830;23.988;2022-09-06T02:58:36;7.22;;;4.15;;
55146;SDS011;41039;49.830;23.988;2022-09-06T03:01:01;7.57;;;4.35;;
55146;SDS011;41039;49.830;23.988;2022-09-06T03:03:26;7.93;;;4.50;;
55146;SDS011;41039;49.830;23.988;2022-09-06T03:05:52;7.78;;;4.45;;
55146;SDS011;41039;49.830;23.988;2022-09-06T03:08:18;7.78;;;4.30;;
55146;SDS011;41039;49.830;23.988;2022-09-06T03:10:47;8.45;;;4.53;;
55146;SDS011;41039;49.830;23.988;2022-09-06T03:13:13;8.90;;;4.63;;
55146;SDS011;41039;49.830;23.988;2022-09-06T03:15:39;11.45;;;5.15;;
55146;SDS011;41039;49.830;23.988;2022-09-06T03:18:04;10.35;;;4.95;;
55146;SDS011;41039;49.830;23.988;2022-09-06T03:20:29;9.52;;;4.53;;
55146;SDS011;41039;49.830;23.988;2022-09-06T03:22:54;12.35;;;5.05;;
55146;SDS011;41039;49.830;23.988;2022-09-06T03:25:20;9.15;;;4.88;;
55146;SDS011;41039;49.830;23.988;2022-09-06T03:27:45;8.60;;;4.70;;
55146;SDS011;41039;49.830;23.988;2022-09-06T03:30:11;16.00;;;6.50;;
55146;SDS011;41039;49.830;23.988;2022-09-06T03:32:36;13.63;;;6.07;;
55146;SDS011;41039;49.830;23.988;2022-09-06T03:35:01;11.98;;;5.97;;
55146;SDS011;41039;49.830;23.988;2022-09-06T03:37:26;15.75;;;7.07;;
55146;SDS011;41039;49.830;23.988;2022-09-06T03:39:52;14.98;;;8.25;;
55146;SDS011;41039;49.830;23.988;2022-09-06T03:42:17;14.30;;;7.55;;
55146;SDS011;41039;49.830;23.988;2022-09-06T03:44:42;17.65;;;8.18;;
55146;SDS011;41039;49.830;23.988;2022-09-06T03:47:08;15.70;;;8.18;;
55146;SDS011;41039;49.830;23.988;2022-09-06T03:49:33;16.05;;;7.75;;
55146;SDS011;41039;49.830;23.988;2022-09-06T03:51:58;15.68;;;7.63;;
55146;SDS011;41039;49.830;23.988;2022-09-06T03:54:23;14.82;;;7.38;;
55146;SDS011;41039;49.830;23.988;2022-09-06T03:56:49;20.88;;;8.65;;
55146;SDS011;41039;49.830;23.988;2022-09-06T03:59:14;16.65;;;6.95;;
55146;SDS011;41039;49.830;23.988;2022-09-06T04:01:39;13.95;;;7.05;;
55146;SDS011;41039;49.830;23.988;2022-09-06T04:04:04;13.55;;;7.10;;
55146;SDS011;41039;49.830;23.988;2022-09-06T04:06:30;23.52;;;10.52;;
55146;SDS011;41039;49.830;23.988;2022-09-06T04:08:55;14.23;;;6.93;;
55146;SDS011;41039;49.830;23.988;2022-09-06T04:11:20;14.05;;;6.65;;
55146;SDS011;41039;49.830;23.988;2022-09-06T04:13:46;18.73;;;7.47;;
55146;SDS011;41039;49.830;23.988;2022-09-06T04:16:11;18.33;;;6.93;;
55146;SDS011;41039;49.830;23.988;2022-09-06T04:18:36;12.27;;;6.70;;
55146;SDS011;41039;49.830;23.988;2022-09-06T04:21:02;23.13;;;7.72;;
55146;SDS011;41039;49.830;23.988;2022-09-06T04:23:27;15.05;;;7.30;;
55146;SDS011;41039;49.830;23.988;2022-09-06T04:25:54;13.13;;;6.28;;
55146;SDS011;41039;49.830;23.988;2022-09-06T04:28:19;11.48;;;6.38;;
55146;SDS011;41039;49.830;23.988;2022-09-06T04:30:55;15.63;;;6.22;;
55146;SDS011;41039;49.830;23.988;2022-09-06T04:33:21;18.65;;;7.90;;
55146;SDS011;41039;49.830;23.988;2022-09-06T04:35:50;11.50;;;6.38;;
55146;SDS011;41039;49.830;23.988;2022-09-06T04:38:15;14.82;;;7.65;;
55146;SDS011;41039;49.830;23.988;2022-09-06T04:40:41;15.27;;;7.32;;
55146;SDS011;41039;49.830;23.988;2022-09-06T04:43:06;14.40;;;6.20;;
55146;SDS011;41039;49.830;23.988;2022-09-06T04:45:31;12.45;;;5.72;;
55146;SDS011;41039;49.830;23.988;2022-09-06T04:47:56;12.10;;;5.80;;
55146;SDS011;41039;49.830;23.988;2022-09-06T04:50:22;14.05;;;5.65;;
55146;SDS011;41039;49.830;23.988;2022-09-06T04:52:47;13.70;;;6.05;;
55146;SDS011;41039;49.830;23.988;2022-09-06T04:55:12;10.20;;;5.05;;
55146;SDS011;41039;49.830;23.988;2022-09-06T04:57:38;13.18;;;5.88;;
55146;SDS011;41039;49.830;23.988;2022-09-06T05:00:03;11.68;;;6.78;;
55146;SDS011;41039;49.830;23.988;2022-09-06T05:02:28;8.70;;;4.72;;
55146;SDS011;41039;49.830;23.988;2022-09-06T05:04:54;14.07;;;6.07;;
55146;SDS011;41039;49.830;23.988;2022-09-06T05:07:19;10.68;;;4.72;;
55146;SDS011;41039;49.830;23.988;2022-09-06T05:09:44;8.48;;;4.28;;
55146;SDS011;41039;49.830;23.988;2022-09-06T05:12:10;9.85;;;4.30;;
55146;SDS011;41039;49.830;23.988;2022-09-06T05:14:35;10.80;;;4.32;;
55146;SDS011;41039;49.830;23.988;2022-09-06T05:17:00;11.80;;;5.05;;
55146;SDS011;41039;49.830;23.988;2022-09-06T05:19:25;12.10;;;5.20;;
55146;SDS011;41039;49.830;23.988;2022-09-06T05:21:51;9.30;;;4.72;;
55146;SDS011;41039;49.830;23.988;2022-09-06T05:24:16;9.73;;;4.95;;
55146;SDS011;41039;49.830;23.988;2022-09-06T05:26:41;9.70;;;5.03;;
55146;SDS011;41039;49.830;23.988;2022-09-06T05:29:07;12.63;;;5.60;;
55146;SDS011;41039;49.830;23.988;2022-09-06T05:31:32;8.30;;;4.50;;
55146;SDS011;41039;49.830;23.988;2022-09-06T05:33:58;13.05;;;4.80;;
55146;SDS011;41039;49.830;23.988;2022-09-06T05:36:24;9.98;;;4.57;;
55146;SDS011;41039;49.830;23.988;2022-09-06T05:38:49;12.15;;;4.40;;
55146;SDS011;41039;49.830;23.988;2022-09-06T05:41:15;8.52;;;4.22;;
55146;SDS011;41039;49.830;23.988;2022-09-06T05:43:40;10.30;;;4.68;;
55146;SDS011;41039;49.830;23.988;2022-09-06T05:46:05;7.60;;;4.25;;
55146;SDS011;41039;49.830;23.988;2022-09-06T05:48:31;12.38;;;4.93;;
55146;SDS011;41039;49.830;23.988;2022-09-06T05:51:00;14.45;;;6.10;;
55146;SDS011;41039;49.830;23.988;2022-09-06T05:53:25;10.82;;;5.78;;
55146;SDS011;41039;49.830;23.988;2022-09-06T05:55:50;13.88;;;6.50;;
55146;SDS011;41039;49.830;23.988;2022-09-06T05:58:15;12.70;;;6.57;;
55146;SDS011;41039;49.830;23.988;2022-09-06T06:00:41;13.23;;;6.35;;
55146;SDS011;41039;49.830;23.988;2022-09-06T06:03:06;13.50;;;6.38;;
55146;SDS011;41039;49.830;23.988;2022-09-06T06:05:31;13.65;;;6.22;;
55146;SDS011;41039;49.830;23.988;2022-09-06T06:07:56;16.35;;;6.70;;
55146;SDS011;41039;49.830;23.988;2022-09-06T06:10:23;12.95;;;6.90;;
55146;SDS011;41039;49.830;23.988;2022-09-06T06:12:48;13.13;;;6.60;;
55146;SDS011;41039;49.830;23.988;2022-09-06T06:15:14;16.55;;;6.70;;
55146;SDS011;41039;49.830;23.988;2022-09-06T06:17:39;11.85;;;6.63;;
55146;SDS011;41039;49.830;23.988;2022-09-06T06:20:05;16.92;;;7.03;;
55146;SDS011;41039;49.830;23.988;2022-09-06T06:22:30;16.85;;;7.35;;
55146;SDS011;41039;49.830;23.988;2022-09-06T06:24:55;16.30;;;7.15;;
55146;SDS011;41039;49.830;23.988;2022-09-06T06:27:21;14.32;;;8.43;;
55146;SDS011;41039;49.830;23.988;2022-09-06T06:29:46;14.52;;;7.30;;
55146;SDS011;41039;49.830;23.988;2022-09-06T06:32:12;10.23;;;6.32;;
55146;SDS011;41039;49.830;23.988;2022-09-06T06:34:37;11.35;;;6.50;;
55146;SDS011;41039;49.830;23.988;2022-09-06T06:37:02;13.35;;;7.38;;
55146;SDS011;41039;49.830;23.988;2022-09-06T06:39:28;12.55;;;7.20;;
55146;SDS011;41039;49.830;23.988;2022-09-06T06:41:53;11.80;;;7.18;;
55146;SDS011;41039;49.830;23.988;2022-09-06T06:44:19;15.73;;;7.32;;
55146;SDS011;41039;49.830;23.988;2022-09-06T06:46:44;12.55;;;7.97;;
55146;SDS011;41039;49.830;23.988;2022-09-06T06:49:10;17.60;;;7.40;;
55146;SDS011;41039;49.830;23.988;2022-09-06T06:51:35;14.55;;;6.95;;
55146;SDS011;41039;49.830;23.988;2022-09-06T06:54:01;16.67;;;5.82;;
55146;SDS011;41039;49.830;23.988;2022-09-06T06:56:27;14.85;;;7.43;;
55146;SDS011;41039;49.830;23.988;2022-09-06T06:58:54;19.08;;;10.63;;
55146;SDS011;41039;49.830;23.988;2022-09-06T07:01:22;13.25;;;7.25;;
55146;SDS011;41039;49.830;23.988;2022-09-06T07:03:47;13.85;;;7.13;;
55146;SDS011;41039;49.830;23.988;2022-09-06T07:06:13;8.63;;;5.40;;
55146;SDS011;41039;49.830;23.988;2022-09-06T07:08:39;12.43;;;7.15;;
55146;SDS011;41039;49.830;23.988;2022-09-06T07:11:05;14.95;;;7.32;;
55146;SDS011;41039;49.830;23.988;2022-09-06T07:13:31;12.00;;;6.55;;
55146;SDS011;41039;49.830;23.988;2022-09-06T07:18:32;10.55;;;6.03;;
55146;SDS011;41039;49.830;23.988;2022-09-06T07:20:58;11.82;;;7.72;;
55146;SDS011;41039;49.830;23.988;2022-09-06T07:23:23;9.63;;;6.03;;
55146;SDS011;41039;49.830;23.988;2022-09-06T07:25:49;8.27;;;5.25;;
55146;SDS011;41039;49.830;23.988;2022-09-06T07:28:14;8.82;;;6.13;;
55146;SDS011;41039;49.830;23.988;2022-09-06T07:30:39;9.52;;;6.65;;
55146;SDS011;41039;49.830;23.988;2022-09-06T07:33:06;11.38;;;7.53;;
55146;SDS011;41039;49.830;23.988;2022-09-06T07:35:31;12.43;;;7.68;;
55146;SDS011;41039;49.830;23.988;2022-09-06T07:37:57;19.80;;;8.55;;
55146;SDS011;41039;49.830;23.988;2022-09-06T07:40:23;10.02;;;7.55;;
55146;SDS011;41039;49.830;23.988;2022-09-06T07:42:49;13.85;;;9.32;;
55146;SDS011;41039;49.830;23.988;2022-09-06T07:45:14;12.23;;;8.32;;
55146;SDS011;41039;49.830;23.988;2022-09-06T07:47:40;11.88;;;7.65;;
55146;SDS011;41039;49.830;23.988;2022-09-06T07:50:05;11.75;;;6.85;;
55146;SDS011;41039;49.830;23.988;2022-09-06T07:52:31;13.55;;;6.40;;
55146;SDS011;41039;49.830;23.988;2022-09-06T07:54:56;9.95;;;6.70;;
55146;SDS011;41039;49.830;23.988;2022-09-06T07:57:22;9.32;;;6.20;;
55146;SDS011;41039;49.830;23.988;2022-09-06T07:59:47;10.80;;;5.75;;
55146;SDS011;41039;49.830;23.988;2022-09-06T08:02:13;9.82;;;5.65;;
55146;SDS011;41039;49.830;23.988;2022-09-06T08:04:38;7.63;;;4.80;;
55146;SDS011;41039;49.830;23.988;2022-09-06T08:07:05;8.55;;;4.88;;
55146;SDS011;41039;49.830;23.988;2022-09-06T08:09:31;8.88;;;4.88;;
55146;SDS011;41039;49.830;23.988;2022-09-06T08:11:56;7.75;;;4.00;;
55146;SDS011;41039;49.830;23.988;2022-09-06T08:14:22;7.40;;;3.72;;
55146;SDS011;41039;49.830;23.988;2022-09-06T08:16:47;4.63;;;3.50;;
55146;SDS011;41039;49.830;23.988;2022-09-06T08:19:12;6.63;;;4.18;;
55146;SDS011;41039;49.830;23.988;2022-09-06T08:21:38;12.88;;;4.60;;
55146;SDS011;41039;49.830;23.988;2022-09-06T08:24:04;9.15;;;3.67;;
55146;SDS011;41039;49.830;23.988;2022-09-06T08:26:30;8.63;;;3.90;;
55146;SDS011;41039;49.830;23.988;2022-09-06T08:28:57;8.65;;;3.55;;
55146;SDS011;41039;49.830;23.988;2022-09-06T08:31:24;8.52;;;3.25;;
55146;SDS011;41039;49.830;23.988;2022-09-06T08:33:50;8.65;;;4.13;;
55146;SDS011;41039;49.830;23.988;2022-09-06T08:36:15;6.03;;;3.25;;
55146;SDS011;41039;49.830;23.988;2022-09-06T08:38:41;6.15;;;3.75;;
55146;SDS011;41039;49.830;23.988;2022-09-06T08:41:11;8.00;;;3.35;;
55146;SDS011;41039;49.830;23.988;2022-09-06T08:43:46;5.20;;;2.03;;
55146;SDS011;41039;49.830;23.988;2022-09-06T08:46:13;5.03;;;2.80;;
55146;SDS011;41039;49.830;23.988;2022-09-06T08:48:39;5.95;;;2.70;;
55146;SDS011;41039;49.830;23.988;2022-09-06T08:51:11;5.45;;;2.58;;
55146;SDS011;41039;49.830;23.988;2022-09-06T08:53:43;3.72;;;2.13;;
55146;SDS011;41039;49.830;23.988;2022-09-06T08:56:19;4.93;;;2.40;;
55146;SDS011;41039;49.830;23.988;2022-09-06T09:04:17;4.97;;;2.37;;
55146;SDS011;41039;49.830;23.988;2022-09-06T09:06:44;5.80;;;3.00;;
55146;SDS011;41039;49.830;23.988;2022-09-06T09:09:13;4.88;;;2.88;;
55146;SDS011;41039;49.830;23.988;2022-09-06T09:11:41;4.97;;;2.40;;
55146;SDS011;41039;49.830;23.988;2022-09-06T09:16:32;8.75;;;2.92;;
55146;SDS011;41039;49.830;23.988;2022-09-06T09:18:59;5.70;;;2.20;;
55146;SDS011;41039;49.830;23.988;2022-09-06T09:21:25;5.43;;;1.80;;
55146;SDS011;41039;49.830;23.988;2022-09-06T09:23:54;5.45;;;2.05;;
55146;SDS011;41039;49.830;23.988;2022-09-06T09:26:21;5.63;;;1.90;;
55146;SDS011;41039;49.830;23.988;2022-09-06T09:29:05;4.75;;;2.30;;
55146;SDS011;41039;49.830;23.988;2022-09-06T09:31:41;5.50;;;1.52;;
55146;SDS011;41039;49.830;23.988;2022-09-06T09:34:10;3.03;;;0.93;;
55146;SDS011;41039;49.830;23.988;2022-09-06T09:36:36;2.78;;;1.10;;
55146;SDS011;41039;49.830;23.988;2022-09-06T09:39:07;6.50;;;2.08;;
55146;SDS011;41039;49.830;23.988;2022-09-06T09:41:32;5.90;;;1.83;;
55146;SDS011;41039;49.830;23.988;2022-09-06T09:44:02;5.03;;;1.67;;
55146;SDS011;41039;49.830;23.988;2022-09-06T09:46:29;6.20;;;2.10;;
55146;SDS011;41039;49.830;23.988;2022-09-06T09:51:35;4.95;;;1.73;;
55146;SDS011;41039;49.830;23.988;2022-09-06T09:54:01;3.72;;;1.40;;
55146;SDS011;41039;49.830;23.988;2022-09-06T09:59:02;5.07;;;1.27;;
55146;SDS011;41039;49.830;23.988;2022-09-06T10:01:31;6.05;;;1.42;;
55146;SDS011;41039;49.830;23.988;2022-09-06T10:04:03;4.30;;;1.58;;
55146;SDS011;41039;49.830;23.988;2022-09-06T10:06:29;3.03;;;1.30;;
55146;SDS011;41039;49.830;23.988;2022-09-06T10:08:55;4.38;;;1.73;;
55146;SDS011;41039;49.830;23.988;2022-09-06T10:11:36;4.97;;;1.90;;
55146;SDS011;41039;49.830;23.988;2022-09-06T10:14:09;5.20;;;1.40;;
55146;SDS011;41039;49.830;23.988;2022-09-06T10:16:42;4.18;;;1.67;;
55146;SDS011;41039;49.830;23.988;2022-09-06T10:19:33;2.90;;;1.48;;
55146;SDS011;41039;49.830;23.988;2022-09-06T10:22:02;4.03;;;1.08;;
55146;SDS011;41039;49.830;23.988;2022-09-06T10:24:39;4.78;;;1.60;;
55146;SDS011;41039;49.830;23.988;2022-09-06T10:27:08;3.15;;;1.20;;
55146;SDS011;41039;49.830;23.988;2022-09-06T10:29:39;3.60;;;1.50;;
55146;SDS011;41039;49.830;23.988;2022-09-06T10:39:46;2.43;;;1.37;;
55146;SDS011;41039;49.830;23.988;2022-09-06T10:44:53;3.70;;;1.63;;
55146;SDS011;41039;49.830;23.988;2022-09-06T10:47:21;3.35;;;1.38;;
55146;SDS011;41039;49.830;23.988;2022-09-06T10:49:53;4.05;;;1.27;;
55146;SDS011;41039;49.830;23.988;2022-09-06T10:52:32;2.60;;;1.20;;
55146;SDS011;41039;49.830;23.988;2022-09-06T10:54:59;3.08;;;1.65;;
55146;SDS011;41039;49.830;23.988;2022-09-06T10:57:39;5.20;;;1.60;;
55146;SDS011;41039;49.830;23.988;2022-09-06T11:00:06;5.10;;;1.60;;
55146;SDS011;41039;49.830;23.988;2022-09-06T11:02:39;8.02;;;1.55;;
55146;SDS011;41039;49.830;23.988;2022-09-06T11:05:09;3.58;;;1.63;;
55146;SDS011;41039;49.830;23.988;2022-09-06T11:07:42;4.72;;;1.80;;
55146;SDS011;41039;49.830;23.988;2022-09-06T11:10:27;3.92;;;1.55;;
55146;SDS011;41039;49.830;23.988;2022-09-06T11:15:22;6.90;;;5.30;;
55146;SDS011;41039;49.830;23.988;2022-09-06T11:27:40;4.13;;;1.40;;
55146;SDS011;41039;49.830;23.988;2022-09-06T11:30:11;5.95;;;1.92;;
55146;SDS011;41039;49.830;23.988;2022-09-06T11:32:38;3.97;;;1.63;;
55146;SDS011;41039;49.830;23.988;2022-09-06T11:35:08;3.78;;;1.40;;
55146;SDS011;41039;49.830;23.988;2022-09-06T11:37:36;4.55;;;1.50;;
55146;SDS011;41039;49.830;23.988;2022-09-06T11:45:19;4.40;;;1.70;;
55146;SDS011;41039;49.830;23.988;2022-09-06T11:52:53;5.45;;;1.80;;
55146;SDS011;41039;49.830;23.988;2022-09-06T11:57:55;3.88;;;1.70;;
55146;SDS011;41039;49.830;23.988;2022-09-06T12:00:22;4.90;;;2.03;;
55146;SDS011;41039;49.830;23.988;2022-09-06T12:02:48;3.10;;;1.20;;
55146;SDS011;41039;49.830;23.988;2022-09-06T12:05:15;4.20;;;1.60;;
55146;SDS011;41039;49.830;23.988;2022-09-06T12:12:53;3.80;;;1.70;;
55146;SDS011;41039;49.830;23.988;2022-09-06T12:17:49;6.60;;;1.90;;
55146;SDS011;41039;49.830;23.988;2022-09-06T12:23:03;2.28;;;1.17;;
55146;SDS011;41039;49.830;23.988;2022-09-06T12:28:03;2.78;;;1.30;;
55146;SDS011;41039;49.830;23.988;2022-09-06T12:30:37;3.95;;;1.75;;
55146;SDS011;41039;49.830;23.988;2022-09-06T12:33:44;3.47;;;1.50;;
55146;SDS011;41039;49.830;23.988;2022-09-06T12:35:51;3.38;;;1.23;;
55146;SDS011;41039;49.830;23.988;2022-09-06T12:38:20;4.07;;;1.48;;
55146;SDS011;41039;49.830;23.988;2022-09-06T12:40:46;3.53;;;1.98;;
55146;SDS011;41039;49.830;23.988;2022-09-06T12:43:13;5.20;;;3.05;;
55146;SDS011;41039;49.830;23.988;2022-09-06T12:45:47;4.22;;;1.75;;
55146;SDS011;41039;49.830;23.988;2022-09-06T12:48:24;3.28;;;1.52;;
55146;SDS011;41039;49.830;23.988;2022-09-06T12:51:04;2.72;;;1.30;;
55146;SDS011;41039;49.830;23.988;2022-09-06T12:53:29;2.45;;;1.40;;
55146;SDS011;41039;49.830;23.988;2022-09-06T12:56:05;2.85;;;1.50;;
55146;SDS011;41039;49.830;23.988;2022-09-06T12:58:31;3.92;;;1.63;;
55146;SDS011;41039;49.830;23.988;2022-09-06T13:00:57;5.40;;;2.15;;
55146;SDS011;41039;49.830;23.988;2022-09-06T13:03:28;3.40;;;1.63;;
55146;SDS011;41039;49.830;23.988;2022-09-06T13:05:56;3.35;;;1.30;;
55146;SDS011;41039;49.830;23.988;2022-09-06T13:08:33;4.80;;;1.52;;
55146;SDS011;41039;49.830;23.988;2022-09-06T13:10:58;3.55;;;1.60;;
55146;SDS011;41039;49.830;23.988;2022-09-06T13:13:24;4.70;;;1.90;;
55146;SDS011;41039;49.830;23.988;2022-09-06T13:15:50;3.75;;;1.65;;
55146;SDS011;41039;49.830;23.988;2022-09-06T13:20:55;3.28;;;1.50;;
55146;SDS011;41039;49.830;23.988;2022-09-06T13:23:21;3.45;;;1.55;;
55146;SDS011;41039;49.830;23.988;2022-09-06T13:25:53;4.35;;;1.50;;
55146;SDS011;41039;49.830;23.988;2022-09-06T13:28:36;3.80;;;1.48;;
55146;SDS011;41039;49.830;23.988;2022-09-06T13:33:42;7.47;;;1.95;;
55146;SDS011;41039;49.830;23.988;2022-09-06T13:38:38;3.17;;;1.33;;
55146;SDS011;41039;49.830;23.988;2022-09-06T13:41:05;4.90;;;1.58;;
55146;SDS011;41039;49.830;23.988;2022-09-06T13:43:39;5.55;;;1.77;;
55146;SDS011;41039;49.830;23.988;2022-09-06T13:46:06;6.45;;;1.90;;
55146;SDS011;41039;49.830;23.988;2022-09-06T13:48:32;3.10;;;1.50;;
55146;SDS011;41039;49.830;23.988;2022-09-06T13:50:57;5.65;;;2.35;;
55146;SDS011;41039;49.830;23.988;2022-09-06T13:53:23;4.28;;;1.40;;
55146;SDS011;41039;49.830;23.988;2022-09-06T13:55:48;5.65;;;1.52;;
55146;SDS011;41039;49.830;23.988;2022-09-06T13:58:13;5.47;;;1.95;;
55146;SDS011;41039;49.830;23.988;2022-09-06T14:00:39;3.03;;;1.55;;
55146;SDS011;41039;49.830;23.988;2022-09-06T14:03:06;4.85;;;1.90;;
55146;SDS011;41039;49.830;23.988;2022-09-06T14:05:31;5.05;;;1.35;;
55146;SDS011;41039;49.830;23.988;2022-09-06T14:07:58;3.50;;;1.83;;
55146;SDS011;41039;49.830;23.988;2022-09-06T14:10:24;4.70;;;1.70;;
55146;SDS011;41039;49.830;23.988;2022-09-06T14:12:49;2.50;;;1.30;;
55146;SDS011;41039;49.830;23.988;2022-09-06T14:15:17;2.92;;;1.42;;
55146;SDS011;41039;49.830;23.988;2022-09-06T14:17:43;3.80;;;1.75;;
55146;SDS011;41039;49.830;23.988;2022-09-06T14:20:08;9.10;;;2.75;;
55146;SDS011;41039;49.830;23.988;2022-09-06T14:22:34;5.63;;;1.88;;
55146;SDS011;41039;49.830;23.988;2022-09-06T14:24:59;4.63;;;1.77;;
55146;SDS011;41039;49.830;23.988;2022-09-06T14:27:25;3.78;;;1.58;;
55146;SDS011;41039;49.830;23.988;2022-09-06T14:29:50;9.23;;;2.17;;
55146;SDS011;41039;49.830;23.988;2022-09-06T14:32:15;3.13;;;1.77;;
55146;SDS011;41039;49.830;23.988;2022-09-06T14:34:42;9.77;;;4.00;;
55146;SDS011;41039;49.830;23.988;2022-09-06T14:37:07;3.08;;;1.85;;
55146;SDS011;41039;49.830;23.988;2022-09-06T14:39:32;3.72;;;1.40;;
55146;SDS011;41039;49.830;23.988;2022-09-06T14:41:58;3.30;;;1.50;;
55146;SDS011;41039;49.830;23.988;2022-09-06T14:44:23;6.10;;;1.77;;
55146;SDS011;41039;49.830;23.988;2022-09-06T14:46:49;3.28;;;1.30;;
55146;SDS011;41039;49.830;23.988;2022-09-06T14:49:17;3.30;;;1.70;;
55146;SDS011;41039;49.830;23.988;2022-09-06T14:51:44;3.63;;;1.33;;
55146;SDS011;41039;49.830;23.988;2022-09-06T14:54:10;6.13;;;1.73;;
55146;SDS011;41039;49.830;23.988;2022-09-06T14:56:36;3.50;;;1.83;;
55146;SDS011;41039;49.830;23.988;2022-09-06T14:59:03;6.45;;;1.77;;
55146;SDS011;41039;49.830;23.988;2022-09-06T15:01:29;4.93;;;2.03;;
55146;SDS011;41039;49.830;23.988;2022-09-06T15:03:59;5.90;;;1.88;;
55146;SDS011;41039;49.830;23.988;2022-09-06T15:06:27;4.70;;;2.45;;
55146;SDS011;41039;49.830;23.988;2022-09-06T15:08:52;7.88;;;1.80;;
55146;SDS011;41039;49.830;23.988;2022-09-06T15:13:54;7.13;;;2.17;;
55146;SDS011;41039;49.830;23.988;2022-09-06T15:16:19;4.93;;;1.73;;
55146;SDS011;41039;49.830;23.988;2022-09-06T15:18:44;5.25;;;2.15;;
55146;SDS011;41039;49.830;23.988;2022-09-06T15:21:14;3.13;;;1.67;;
55146;SDS011;41039;49.830;23.988;2022-09-06T15:23:40;2.83;;;1.52;;
55146;SDS011;41039;49.830;23.988;2022-09-06T15:26:07;3.25;;;1.55;;
55146;SDS011;41039;49.830;23.988;2022-09-06T15:28:33;3.35;;;1.48;;
55146;SDS011;41039;49.830;23.988;2022-09-06T15:30:59;3.45;;;1.38;;
55146;SDS011;41039;49.830;23.988;2022-09-06T15:33:27;6.22;;;2.20;;
55146;SDS011;41039;49.830;23.988;2022-09-06T15:35:52;6.07;;;1.95;;
55146;SDS011;41039;49.830;23.988;2022-09-06T15:38:21;5.68;;;1.75;;
55146;SDS011;41039;49.830;23.988;2022-09-06T15:40:46;3.90;;;1.70;;
55146;SDS011;41039;49.830;23.988;2022-09-06T15:43:12;3.70;;;1.48;;
55146;SDS011;41039;49.830;23.988;2022-09-06T15:45:46;7.50;;;5.65;;
55146;SDS011;41039;49.830;23.988;2022-09-06T15:48:12;4.78;;;1.95;;
55146;SDS011;41039;49.830;23.988;2022-09-06T15:50:39;4.85;;;1.80;;
55146;SDS011;41039;49.830;23.988;2022-09-06T15:53:05;4.20;;;1.90;;
55146;SDS011;41039;49.830;23.988;2022-09-06T15:55:30;5.65;;;1.70;;
55146;SDS011;41039;49.830;23.988;2022-09-06T15:58:14;4.68;;;1.63;;
55146;SDS011;41039;49.830;23.988;2022-09-06T16:00:39;5.03;;;2.47;;
55146;SDS011;41039;49.830;23.988;2022-09-06T16:03:05;4.93;;;1.92;;
55146;SDS011;41039;49.830;23.988;2022-09-06T16:05:33;4.90;;;2.20;;
55146;SDS011;41039;49.830;23.988;2022-09-06T16:07:58;5.88;;;2.40;;
55146;SDS011;41039;49.830;23.988;2022-09-06T16:10:23;6.88;;;2.22;;
55146;SDS011;41039;49.830;23.988;2022-09-06T16:12:50;3.33;;;2.00;;
55146;SDS011;41039;49.830;23.988;2022-09-06T16:15:15;4.47;;;2.13;;